Time;durP1;ratioP1;P1;durP2;ratioP2;P2;SDS_P1;SDS_P2;PMS_P1;PMS_P2;Temp;Humidity;BMP_temperature;BMP_pressure;BME280_temperature;BME280_humidity;BME280_pressure;Samples;Min_cycle;Max_cycle;Signal;HPM_P1;HPM_P2
2023/03/26 00:01:45;;;;;;;16.90;4.07;;;11.60;99.90;;;;;;5046778;28;20695;-32
2023/03/26 00:04:13;;;;;;;18.70;3.77;;;11.60;99.90;;;;;;5046654;28;20200;-32
2023/03/26 00:06:47;;;;;;;17.13;4.10;;;11.60;99.90;;;;;;5045339;28;20302;-32
2023/03/26 00:09:18;;;;;;;12.40;3.40;;;11.60;99.90;;;;;;5046287;28;20232;-33
2023/03/26 00:11:45;;;;;;;9.60;3.50;;;11.70;99.90;;;;;;5046265;28;20612;-33
2023/03/26 00:14:16;;;;;;;10.20;2.93;;;11.70;99.90;;;;;;5046136;28;20258;-32
2023/03/26 00:16:48;;;;;;;9.03;2.57;;;11.70;99.90;;;;;;5046290;28;20204;-32
2023/03/26 00:19:15;;;;;;;11.83;2.90;;;11.70;99.90;;;;;;5046183;28;20239;-33
2023/03/26 00:21:47;;;;;;;10.80;2.60;;;11.70;99.90;;;;;;5046097;28;20240;-33
2023/03/26 00:24:16;;;;;;;8.27;2.07;;;11.80;99.90;;;;;;5046007;28;20196;-32
2023/03/26 00:26:47;;;;;;;7.83;2.00;;;11.80;99.90;;;;;;5045557;28;20219;-32
2023/03/26 00:29:15;;;;;;;9.07;2.00;;;11.80;99.90;;;;;;5046679;28;20979;-32
2023/03/26 00:31:44;;;;;;;8.80;2.40;;;11.90;99.90;;;;;;5044450;28;20206;-32
2023/03/26 00:34:14;;;;;;;5.67;1.70;;;11.90;99.90;;;;;;5045917;28;20215;-32
2023/03/26 00:36:45;;;;;;;9.33;2.27;;;11.90;99.90;;;;;;5044354;28;20209;-33
2023/03/26 00:39:16;;;;;;;8.93;2.30;;;11.90;99.90;;;;;;5044364;28;20305;-32
2023/03/26 00:41:44;;;;;;;9.03;2.27;;;11.90;99.90;;;;;;5044598;28;20196;-32
2023/03/26 00:44:13;;;;;;;9.63;2.57;;;12.00;99.90;;;;;;5045741;28;20556;-32
2023/03/26 00:46:41;;;;;;;11.23;2.30;;;12.00;99.90;;;;;;5045782;28;21161;-32
2023/03/26 00:49:13;;;;;;;9.73;1.90;;;12.00;99.90;;;;;;5044111;28;20231;-32
2023/03/26 00:51:43;;;;;;;9.33;2.77;;;12.00;99.90;;;;;;5044445;28;20204;-33
2023/03/26 00:54:12;;;;;;;8.37;2.10;;;12.00;99.90;;;;;;5045513;28;20218;-32
2023/03/26 00:56:39;;;;;;;11.07;2.60;;;12.00;99.90;;;;;;5045791;28;20204;-32
2023/03/26 00:59:12;;;;;;;7.33;2.10;;;12.00;99.90;;;;;;5032428;28;20216;-32
2023/03/26 01:01:43;;;;;;;10.30;2.10;;;12.00;99.90;;;;;;5028565;28;20335;-32
2023/03/26 01:04:29;;;;;;;11.13;2.27;;;12.00;99.90;;;;;;5044007;28;20200;-32
2023/03/26 01:07:01;;;;;;;8.13;2.30;;;12.00;99.90;;;;;;5036650;28;20208;-33
2023/03/26 01:09:41;;;;;;;9.50;2.30;;;12.00;99.90;;;;;;5040441;28;20303;-32
2023/03/26 01:12:15;;;;;;;8.57;2.17;;;12.00;99.90;;;;;;5046002;28;20208;-32
2023/03/26 01:14:47;;;;;;;10.07;3.00;;;11.90;99.90;;;;;;5026867;28;20233;-33
2023/03/26 01:17:17;;;;;;;8.23;2.33;;;11.90;99.90;;;;;;5032658;28;20211;-33
2023/03/26 01:19:59;;;;;;;11.27;2.90;;;11.90;99.90;;;;;;5045769;28;20324;-33
2023/03/26 01:22:33;;;;;;;11.13;3.10;;;11.90;99.90;;;;;;5046230;28;20283;-33
2023/03/26 01:25:08;;;;;;;11.47;2.90;;;11.90;99.90;;;;;;5045930;28;20215;-32
2023/03/26 01:27:42;;;;;;;12.90;2.90;;;11.90;99.90;;;;;;5044517;28;20257;-33
2023/03/26 01:30:32;;;;;;;12.53;3.33;;;11.90;99.90;;;;;;5044719;28;20218;-33
2023/03/26 01:33:12;;;;;;;11.27;3.00;;;11.90;99.90;;;;;;5042566;28;20196;-32
2023/03/26 01:35:42;;;;;;;9.83;2.67;;;11.80;99.90;;;;;;5045759;28;20199;-32
2023/03/26 01:38:47;;;;;;;14.00;3.30;;;11.80;99.90;;;;;;5046869;28;20203;-32
2023/03/26 01:41:32;;;;;;;12.73;4.23;;;11.80;99.90;;;;;;5048040;28;20198;-32
2023/03/26 01:44:07;;;;;;;11.00;3.33;;;11.80;99.90;;;;;;5047645;28;20204;-32
2023/03/26 01:46:38;;;;;;;10.50;3.30;;;11.80;99.90;;;;;;5049004;28;20318;-32
2023/03/26 01:49:12;;;;;;;11.53;3.40;;;11.80;99.90;;;;;;5047437;28;20216;-34
2023/03/26 01:51:41;;;;;;;13.67;4.00;;;11.80;99.90;;;;;;5047478;28;20203;-34
2023/03/26 01:54:15;;;;;;;11.07;3.33;;;11.80;99.90;;;;;;5048898;28;20675;-32
2023/03/26 01:57:10;;;;;;;13.20;4.00;;;11.80;99.90;;;;;;5049232;28;20576;-32
2023/03/26 02:00:10;;;;;;;10.23;3.60;;;11.80;99.90;;;;;;5048948;28;20315;-32
2023/03/26 02:03:01;;;;;;;11.30;3.60;;;11.70;99.90;;;;;;5048701;28;20200;-32
2023/03/26 02:05:42;;;;;;;12.73;3.90;;;11.70;99.90;;;;;;5049021;28;20267;-32
2023/03/26 02:08:30;;;;;;;10.77;3.53;;;11.70;99.90;;;;;;5048550;28;20188;-32
2023/03/26 02:11:04;;;;;;;11.53;3.67;;;11.70;99.90;;;;;;5048935;28;20214;-32
2023/03/26 02:13:31;;;;;;;13.87;4.17;;;11.70;99.90;;;;;;5046741;28;20330;-32
2023/03/26 02:16:02;;;;;;;10.60;3.80;;;11.70;99.90;;;;;;5030600;28;20566;-32
2023/03/26 02:18:37;;;;;;;12.17;4.00;;;11.70;99.90;;;;;;5048553;28;20204;-32
2023/03/26 02:21:24;;;;;;;14.23;3.93;;;11.70;99.90;;;;;;5048559;28;20297;-32
2023/03/26 02:24:01;;;;;;;12.83;3.40;;;11.70;99.90;;;;;;5049214;28;20345;-32
2023/03/26 02:26:33;;;;;;;12.60;3.17;;;11.70;99.90;;;;;;5049019;28;20286;-32
2023/03/26 02:29:03;;;;;;;13.13;3.97;;;11.70;99.90;;;;;;5049052;28;20197;-33
2023/03/26 02:31:34;;;;;;;15.83;4.07;;;11.60;99.90;;;;;;5047092;28;20244;-32
2023/03/26 02:34:04;;;;;;;13.07;3.70;;;11.70;99.90;;;;;;5048354;28;20222;-32
2023/03/26 02:36:31;;;;;;;9.27;3.20;;;11.70;99.90;;;;;;5048921;28;20513;-32
2023/03/26 02:39:02;;;;;;;14.97;3.50;;;11.60;99.90;;;;;;5047050;28;20721;-32
2023/03/26 02:41:31;;;;;;;13.10;2.97;;;11.60;99.90;;;;;;5048940;28;20725;-32
2023/03/26 02:44:01;;;;;;;12.30;3.27;;;11.60;99.90;;;;;;5046867;28;20296;-32
2023/03/26 02:46:33;;;;;;;9.00;3.20;;;11.60;99.90;;;;;;5048542;28;20323;-32
2023/03/26 02:49:03;;;;;;;16.37;3.27;;;11.60;99.90;;;;;;5048235;28;20745;-32
2023/03/26 02:51:36;;;;;;;11.00;3.00;;;11.60;99.90;;;;;;5048419;28;20208;-32
2023/03/26 02:54:05;;;;;;;13.27;3.33;;;11.60;99.90;;;;;;5046919;28;20196;-32
2023/03/26 02:56:36;;;;;;;8.60;2.73;;;11.60;99.90;;;;;;5048211;28;20642;-32
2023/03/26 02:59:05;;;;;;;11.37;2.73;;;11.60;99.90;;;;;;5048241;28;20218;-32
2023/03/26 03:01:35;;;;;;;14.03;3.13;;;11.60;99.90;;;;;;5047941;28;20262;-32
2023/03/26 03:04:03;;;;;;;9.77;3.13;;;11.60;99.90;;;;;;5046684;28;20638;-32
2023/03/26 03:06:32;;;;;;;9.77;3.00;;;11.50;99.90;;;;;;5048233;28;20254;-32
2023/03/26 03:09:03;;;;;;;12.83;3.13;;;11.50;99.90;;;;;;5047926;28;20222;-32
2023/03/26 03:11:34;;;;;;;11.50;2.67;;;11.50;99.90;;;;;;5046610;28;20239;-31
2023/03/26 03:14:07;;;;;;;10.60;3.50;;;11.50;99.90;;;;;;5048102;28;20208;-32
2023/03/26 03:16:34;;;;;;;9.93;2.87;;;11.50;99.90;;;;;;5030385;28;20715;-32
2023/03/26 03:19:01;;;;;;;9.00;2.60;;;11.50;99.90;;;;;;5046248;28;20622;-32
2023/03/26 03:21:29;;;;;;;10.30;3.00;;;11.50;99.90;;;;;;5047791;28;20407;-32
2023/03/26 03:23:56;;;;;;;7.80;2.70;;;11.50;99.90;;;;;;5046122;28;20258;-32
2023/03/26 03:26:29;;;;;;;14.67;3.07;;;11.50;99.90;;;;;;5046323;28;20212;-32
2023/03/26 03:28:57;;;;;;;11.43;2.80;;;11.50;99.90;;;;;;5046203;28;20665;-32
2023/03/26 03:31:28;;;;;;;12.80;3.23;;;11.50;99.90;;;;;;5047845;28;20196;-32
2023/03/26 03:33:55;;;;;;;11.67;2.60;;;11.50;99.90;;;;;;5046096;28;20208;-32
2023/03/26 03:36:26;;;;;;;9.83;2.87;;;11.50;99.90;;;;;;5047244;28;20972;-32
2023/03/26 03:38:54;;;;;;;11.73;2.87;;;11.50;99.90;;;;;;5047429;28;20211;-32
2023/03/26 03:41:23;;;;;;;11.27;3.23;;;11.50;99.90;;;;;;5046058;28;20695;-32
2023/03/26 03:43:53;;;;;;;9.97;3.10;;;11.50;99.90;;;;;;5047117;28;20200;-32
2023/03/26 03:46:20;;;;;;;10.33;2.93;;;11.50;99.90;;;;;;5046305;28;20212;-32
2023/03/26 03:48:48;;;;;;;12.37;3.03;;;11.50;99.90;;;;;;5046050;28;20213;-32
2023/03/26 03:51:17;;;;;;;10.70;2.73;;;11.50;99.90;;;;;;5046031;28;20196;-32
2023/03/26 03:53:44;;;;;;;10.73;2.87;;;11.50;99.90;;;;;;5047850;28;20255;-32
2023/03/26 03:56:17;;;;;;;7.47;2.60;;;11.50;99.90;;;;;;5045517;28;20238;-32
2023/03/26 03:58:46;;;;;;;10.60;2.60;;;11.50;99.90;;;;;;5045338;28;20216;-32
2023/03/26 04:01:14;;;;;;;8.67;2.73;;;11.50;99.90;;;;;;5044758;28;20235;-32
2023/03/26 04:03:44;;;;;;;11.10;3.00;;;11.50;99.90;;;;;;5046757;28;20698;-32
2023/03/26 04:06:17;;;;;;;9.57;2.83;;;11.50;99.90;;;;;;5046735;28;20624;-31
2023/03/26 04:08:45;;;;;;;7.67;2.87;;;11.40;99.90;;;;;;5046939;28;20230;-32
2023/03/26 04:11:13;;;;;;;10.20;2.83;;;11.50;99.90;;;;;;5045600;28;20196;-32
2023/03/26 04:13:43;;;;;;;11.90;3.00;;;11.50;99.90;;;;;;5046849;28;20758;-32
2023/03/26 04:16:13;;;;;;;13.63;3.13;;;11.50;99.90;;;;;;5028917;28;20200;-32
2023/03/26 04:18:44;;;;;;;11.07;2.87;;;11.40;99.90;;;;;;5045073;28;20216;-32
2023/03/26 04:21:14;;;;;;;11.53;3.27;;;11.40;99.90;;;;;;5046756;28;20605;-32
2023/03/26 04:23:44;;;;;;;12.17;2.93;;;11.40;99.90;;;;;;5029179;28;20203;-32
2023/03/26 04:26:19;;;;;;;9.20;2.57;;;11.40;99.90;;;;;;5046914;28;20235;-32
2023/03/26 04:28:55;;;;;;;8.97;2.60;;;11.40;99.90;;;;;;5046488;28;20276;-32
2023/03/26 04:31:29;;;;;;;9.47;2.60;;;11.40;99.90;;;;;;5044974;28;20208;-32
2023/03/26 04:34:06;;;;;;;6.07;2.40;;;11.40;99.90;;;;;;5045007;28;20201;-32
2023/03/26 04:36:41;;;;;;;8.27;2.70;;;11.40;99.90;;;;;;5046427;28;20215;-32
2023/03/26 04:39:11;;;;;;;8.40;2.50;;;11.40;99.90;;;;;;5046759;28;20389;-32
2023/03/26 04:41:39;;;;;;;8.50;3.07;;;11.40;99.90;;;;;;5045091;28;20667;-32
2023/03/26 04:44:08;;;;;;;8.63;2.43;;;11.40;99.90;;;;;;5045084;28;20659;-32
2023/03/26 04:46:35;;;;;;;12.63;2.57;;;11.40;99.90;;;;;;5044898;28;20219;-32
2023/03/26 04:49:03;;;;;;;10.93;2.83;;;11.40;99.90;;;;;;5046286;28;20273;-32
2023/03/26 04:51:40;;;;;;;12.03;2.93;;;11.40;99.90;;;;;;5044920;28;20493;-32
2023/03/26 04:54:13;;;;;;;8.73;2.40;;;11.40;99.90;;;;;;5046497;28;20199;-32
2023/03/26 04:56:55;;;;;;;12.70;2.53;;;11.40;99.90;;;;;;5044971;28;20620;-32
2023/03/26 04:59:29;;;;;;;10.40;2.90;;;11.40;99.90;;;;;;5045816;28;20200;-32
2023/03/26 05:01:58;;;;;;;11.57;2.73;;;11.40;99.90;;;;;;5046095;28;20749;-32
2023/03/26 05:04:28;;;;;;;10.97;2.83;;;11.40;99.90;;;;;;5046038;28;20212;-32
2023/03/26 05:06:58;;;;;;;14.47;3.37;;;11.40;99.90;;;;;;5044794;28;20235;-32
2023/03/26 05:09:30;;;;;;;11.13;2.60;;;11.40;99.90;;;;;;5046891;28;20535;-32
2023/03/26 05:11:59;;;;;;;13.77;2.77;;;11.40;99.90;;;;;;5046142;28;20622;-32
2023/03/26 05:14:29;;;;;;;8.47;2.27;;;11.40;99.90;;;;;;5048756;28;20734;-32
2023/03/26 05:16:56;;;;;;;11.17;2.40;;;11.40;99.90;;;;;;5048894;28;20210;-32
2023/03/26 05:19:26;;;;;;;7.57;2.80;;;11.40;99.90;;;;;;5050328;28;20571;-32
2023/03/26 05:21:53;;;;;;;9.43;2.60;;;11.40;99.90;;;;;;5048756;28;20212;-32
2023/03/26 05:24:23;;;;;;;6.63;2.07;;;11.50;99.90;;;;;;5050392;28;20544;-32
2023/03/26 05:26:56;;;;;;;9.67;2.57;;;11.50;99.90;;;;;;5049625;28;20207;-32
2023/03/26 05:29:23;;;;;;;9.83;2.97;;;11.50;99.90;;;;;;5049666;28;20290;-32
2023/03/26 05:31:50;;;;;;;7.87;2.20;;;11.50;99.90;;;;;;5048268;28;20255;-32
2023/03/26 05:34:25;;;;;;;9.97;2.60;;;11.50;99.90;;;;;;5049432;28;20208;-32
2023/03/26 05:36:56;;;;;;;9.37;2.33;;;11.50;99.90;;;;;;5049925;28;20946;-32
2023/03/26 05:39:25;;;;;;;8.20;2.33;;;11.60;99.90;;;;;;5048286;28;20797;-32
2023/03/26 05:41:55;;;;;;;13.07;2.40;;;11.60;99.90;;;;;;5049635;28;20224;-32
2023/03/26 05:44:22;;;;;;;6.70;2.03;;;11.60;99.90;;;;;;5049696;28;20197;-32
2023/03/26 05:46:52;;;;;;;5.23;1.87;;;11.60;99.90;;;;;;5048202;28;20235;-32
2023/03/26 05:49:20;;;;;;;7.97;2.40;;;11.60;99.90;;;;;;5048078;28;20196;-32
2023/03/26 05:51:51;;;;;;;9.10;1.93;;;11.60;99.90;;;;;;5047732;28;20228;-32
2023/03/26 05:54:23;;;;;;;7.70;2.03;;;11.50;99.90;;;;;;5049086;28;20442;-32
2023/03/26 05:56:51;;;;;;;8.23;1.90;;;11.50;99.90;;;;;;5049768;28;20279;-32
2023/03/26 05:59:21;;;;;;;6.60;2.30;;;11.50;99.90;;;;;;5049161;28;20211;-32
2023/03/26 06:01:53;;;;;;;10.00;2.30;;;11.50;99.90;;;;;;5047737;28;20274;-32
2023/03/26 06:04:22;;;;;;;6.80;1.73;;;11.50;99.90;;;;;;5049158;28;20269;-32
2023/03/26 06:06:52;;;;;;;6.17;1.70;;;11.50;99.90;;;;;;5047410;28;20208;-32
2023/03/26 06:09:23;;;;;;;8.07;2.27;;;11.50;99.90;;;;;;5049083;28;20235;-32
2023/03/26 06:11:52;;;;;;;7.23;2.00;;;11.50;99.90;;;;;;5048006;28;20310;-32
2023/03/26 06:14:21;;;;;;;7.60;1.80;;;11.50;99.90;;;;;;5047551;28;20207;-32
2023/03/26 06:16:48;;;;;;;7.07;1.90;;;11.50;99.90;;;;;;5049120;28;20201;-32
2023/03/26 06:19:16;;;;;;;5.63;1.70;;;11.50;99.90;;;;;;5047406;28;20616;-32
2023/03/26 06:21:43;;;;;;;7.23;2.10;;;11.50;99.90;;;;;;5049119;28;20228;-32
2023/03/26 06:24:10;;;;;;;6.27;1.63;;;11.50;99.90;;;;;;5048062;28;20255;-32
2023/03/26 06:26:37;;;;;;;4.87;1.30;;;11.50;99.90;;;;;;5047305;28;20200;-32
2023/03/26 06:29:07;;;;;;;6.30;1.87;;;11.40;99.90;;;;;;5047428;28;20212;-32
2023/03/26 06:31:37;;;;;;;6.53;1.87;;;11.40;99.90;;;;;;5049014;28;20200;-32
2023/03/26 06:34:04;;;;;;;6.23;1.90;;;11.40;99.90;;;;;;5047477;28;20500;-32
2023/03/26 06:36:34;;;;;;;3.90;1.30;;;11.40;99.90;;;;;;5049244;28;20291;-32
2023/03/26 06:39:04;;;;;;;7.20;1.73;;;11.40;99.90;;;;;;5049129;28;20498;-32
2023/03/26 06:41:34;;;;;;;6.30;1.63;;;11.40;99.90;;;;;;5048375;28;20599;-32
2023/03/26 06:44:04;;;;;;;5.73;2.10;;;11.40;99.90;;;;;;5049140;28;20283;-32
2023/03/26 06:46:31;;;;;;;9.07;2.43;;;11.40;99.90;;;;;;5046929;28;20223;-32
2023/03/26 06:49:06;;;;;;;8.87;3.00;;;11.40;99.90;;;;;;5030407;28;20192;-32
2023/03/26 06:51:37;;;;;;;10.30;2.73;;;11.40;99.90;;;;;;5048457;28;20722;-32
2023/03/26 06:54:09;;;;;;;7.33;2.20;;;11.40;99.90;;;;;;5048530;28;20255;-32
2023/03/26 06:56:38;;;;;;;6.40;2.07;;;11.40;99.90;;;;;;5047004;28;20346;-31
2023/03/26 06:59:06;;;;;;;7.90;1.87;;;11.40;99.90;;;;;;5046687;28;20560;-32
2023/03/26 07:01:33;;;;;;;6.33;1.90;;;11.40;99.90;;;;;;5048202;28;20274;-32
2023/03/26 07:04:03;;;;;;;5.37;1.57;;;11.30;99.90;;;;;;5048095;28;20201;-32
2023/03/26 07:06:31;;;;;;;6.73;2.07;;;11.30;99.90;;;;;;5047771;28;20309;-31
2023/03/26 07:09:01;;;;;;;6.17;1.97;;;11.30;99.90;;;;;;5045955;28;21117;-31
2023/03/26 07:11:29;;;;;;;6.93;2.30;;;11.30;99.90;;;;;;5046329;28;20204;-32
2023/03/26 07:13:56;;;;;;;7.73;2.07;;;11.30;99.90;;;;;;5046423;28;20769;-32
2023/03/26 07:16:25;;;;;;;5.23;2.17;;;11.30;99.90;;;;;;5047795;28;20200;-31
2023/03/26 07:18:54;;;;;;;5.27;1.63;;;11.30;99.90;;;;;;5048611;28;20211;-31
2023/03/26 07:21:21;;;;;;;6.60;1.73;;;11.30;99.90;;;;;;5046219;28;20719;-31
2023/03/26 07:23:54;;;;;;;5.03;2.47;;;11.30;99.90;;;;;;5047638;28;20196;-33
2023/03/26 07:26:32;;;;;;;5.83;1.87;;;11.30;99.90;;;;;;5030068;28;20215;-34
2023/03/26 07:29:36;;;;;;;3.13;1.40;;;11.30;99.90;;;;;;5047796;28;20200;-34
2023/03/26 07:32:42;;;;;;;3.07;1.50;;;11.20;99.90;;;;;;5046744;28;20683;-34
2023/03/26 07:35:34;;;;;;;5.47;1.13;;;11.20;99.90;;;;;;5046046;28;20670;-34
2023/03/26 07:38:25;;;;;;;6.63;1.30;;;11.10;99.90;;;;;;5047445;28;20215;-34
2023/03/26 07:41:02;;;;;;;3.13;1.70;;;11.10;99.90;;;;;;5047657;28;20273;-34
2023/03/26 07:43:37;;;;;;;4.23;1.10;;;11.00;99.90;;;;;;5047348;28;20202;-34
2023/03/26 07:46:10;;;;;;;4.13;1.30;;;11.00;99.90;;;;;;5047319;28;20270;-31
2023/03/26 07:48:48;;;;;;;3.67;1.20;;;11.00;99.90;;;;;;5047387;28;20267;-31
2023/03/26 07:51:17;;;;;;;5.03;1.20;;;11.00;99.90;;;;;;5045779;28;20203;-31
2023/03/26 07:53:45;;;;;;;2.50;1.00;;;10.90;99.90;;;;;;5046773;28;20250;-31
2023/03/26 07:56:20;;;;;;;3.90;1.20;;;10.90;99.90;;;;;;5045390;28;20255;-31
2023/03/26 07:58:55;;;;;;;4.00;1.23;;;10.90;99.90;;;;;;5045739;28;20200;-30
2023/03/26 08:01:35;;;;;;;2.23;1.10;;;10.90;99.90;;;;;;5045534;28;20239;-31
2023/03/26 08:04:47;;;;;;;3.87;1.30;;;10.90;99.90;;;;;;5045551;28;20188;-31
2023/03/26 08:08:01;;;;;;;3.17;1.10;;;10.90;99.90;;;;;;5043918;28;20709;-31
2023/03/26 08:10:37;;;;;;;6.73;1.20;;;10.90;99.90;;;;;;5013622;28;20653;-31
2023/03/26 08:13:42;;;;;;;4.20;1.13;;;10.80;99.90;;;;;;5042028;28;20246;-30
2023/03/26 08:16:18;;;;;;;6.03;1.10;;;10.80;99.90;;;;;;5027262;28;20579;-30
2023/03/26 08:19:06;;;;;;;4.70;1.33;;;10.80;99.90;;;;;;5045440;28;20334;-31
2023/03/26 08:21:59;;;;;;;4.07;1.30;;;10.70;99.90;;;;;;5045319;28;20219;-30
2023/03/26 08:24:52;;;;;;;5.97;1.10;;;10.70;99.90;;;;;;5045679;28;20298;-31
2023/03/26 08:27:33;;;;;;;4.30;1.10;;;10.70;99.90;;;;;;5045504;28;20254;-30
2023/03/26 08:30:15;;;;;;;4.43;1.30;;;10.70;99.90;;;;;;5045290;28;20192;-30
2023/03/26 08:32:56;;;;;;;6.43;1.60;;;10.70;99.90;;;;;;5045384;28;20291;-30
2023/03/26 08:35:27;;;;;;;7.37;1.73;;;10.60;99.90;;;;;;5045189;28;20202;-30
2023/03/26 08:37:59;;;;;;;7.80;1.70;;;10.60;99.90;;;;;;5046548;28;20383;-30
2023/03/26 08:41:18;;;;;;;6.10;1.40;;;10.60;99.90;;;;;;5046293;28;20637;-30
2023/03/26 08:44:01;;;;;;;5.53;1.63;;;10.60;99.90;;;;;;5043459;28;20205;-30
2023/03/26 08:47:12;;;;;;;4.23;1.33;;;10.50;99.90;;;;;;5044291;28;20230;-30
2023/03/26 08:49:55;;;;;;;5.80;1.30;;;10.50;99.90;;;;;;5046279;28;20254;-30
2023/03/26 08:52:57;;;;;;;2.73;1.10;;;10.50;99.90;;;;;;5046293;28;20274;-30
2023/03/26 08:56:03;;;;;;;5.03;1.33;;;10.50;99.90;;;;;;5036557;28;20259;-31
2023/03/26 08:58:36;;;;;;;2.93;1.40;;;10.50;99.90;;;;;;5044806;28;20647;-30
2023/03/26 09:01:16;;;;;;;4.53;1.10;;;10.40;99.90;;;;;;5046442;28;20302;-31
2023/03/26 09:04:20;;;;;;;3.33;0.90;;;10.40;99.90;;;;;;5044715;28;20961;-30
2023/03/26 09:06:59;;;;;;;6.47;1.70;;;10.50;99.90;;;;;;5046130;28;20227;-30
2023/03/26 09:09:44;;;;;;;4.83;1.40;;;10.50;99.90;;;;;;5044637;28;20208;-31
2023/03/26 09:12:42;;;;;;;4.43;1.23;;;10.50;99.90;;;;;;5044595;28;20207;-30
2023/03/26 09:15:26;;;;;;;4.17;1.33;;;10.40;99.90;;;;;;5046256;28;20692;-30
2023/03/26 09:18:24;;;;;;;4.67;1.03;;;10.50;99.90;;;;;;5044627;28;20291;-30
2023/03/26 09:21:13;;;;;;;2.27;1.03;;;10.50;99.90;;;;;;5044589;28;20386;-31
2023/03/26 09:24:02;;;;;;;4.57;1.20;;;10.50;99.90;;;;;;5044710;28;20211;-31
2023/03/26 09:26:59;;;;;;;2.43;1.00;;;10.50;99.90;;;;;;5044409;28;20220;-31
2023/03/26 09:29:54;;;;;;;4.23;1.27;;;10.50;99.90;;;;;;5044658;28;20303;-31
2023/03/26 09:33:02;;;;;;;3.50;1.20;;;10.50;99.90;;;;;;5045973;28;20270;-31
2023/03/26 09:35:50;;;;;;;4.80;1.23;;;10.50;99.90;;;;;;5045867;28;20311;-31
2023/03/26 09:38:44;;;;;;;5.90;2.00;;;10.50;99.90;;;;;;5045613;28;20201;-31
2023/03/26 09:41:16;;;;;;;2.67;1.20;;;10.50;99.90;;;;;;5045717;28;20335;-31
2023/03/26 09:43:56;;;;;;;2.63;1.07;;;10.50;99.90;;;;;;5045888;28;20192;-31
2023/03/26 09:46:50;;;;;;;4.10;1.10;;;10.50;99.90;;;;;;5045722;28;20250;-31
2023/03/26 09:49:41;;;;;;;4.87;1.00;;;10.50;99.90;;;;;;5044150;28;20750;-31
2023/03/26 09:52:35;;;;;;;2.43;1.00;;;10.60;99.90;;;;;;5045849;28;20196;-31
2023/03/26 09:55:21;;;;;;;3.03;1.20;;;10.60;99.90;;;;;;5045305;28;20335;-31
2023/03/26 09:58:22;;;;;;;5.40;1.33;;;10.50;99.90;;;;;;5044147;28;20216;-31
2023/03/26 10:01:30;;;;;;;2.63;1.03;;;10.50;99.90;;;;;;5049170;28;20204;-31
2023/03/26 10:04:13;;;;;;;4.40;1.40;;;10.50;99.90;;;;;;5047582;28;20206;-31
2023/03/26 10:06:56;;;;;;;3.43;1.00;;;10.50;99.90;;;;;;5047166;28;20322;-33
2023/03/26 10:09:41;;;;;;;3.80;1.03;;;10.50;99.90;;;;;;5047613;28;20273;-31
2023/03/26 10:12:30;;;;;;;3.97;1.30;;;10.40;99.90;;;;;;5047713;28;20267;-33
2023/03/26 10:15:47;;;;;;;3.47;1.23;;;10.40;99.90;;;;;;5049091;28;20270;-34
2023/03/26 10:18:26;;;;;;;4.40;1.30;;;10.40;99.90;;;;;;5049144;28;20703;-31
2023/03/26 10:21:04;;;;;;;2.03;0.97;;;10.40;99.90;;;;;;5048952;28;20200;-31
2023/03/26 10:23:34;;;;;;;2.73;1.30;;;10.40;99.90;;;;;;5049066;28;20208;-31
2023/03/26 10:26:09;;;;;;;3.83;1.20;;;10.40;99.90;;;;;;5048630;28;20200;-31
2023/03/26 10:29:08;;;;;;;3.40;1.27;;;10.40;99.90;;;;;;5047407;28;20212;-31
2023/03/26 10:31:47;;;;;;;5.57;1.47;;;10.40;99.90;;;;;;5039507;28;20208;-32
2023/03/26 10:34:17;;;;;;;2.27;1.13;;;10.40;99.90;;;;;;5047284;28;20211;-31
2023/03/26 10:36:55;;;;;;;3.60;1.60;;;10.40;99.90;;;;;;5048671;28;20196;-31
2023/03/26 10:39:43;;;;;;;1.77;1.13;;;10.40;99.90;;;;;;5048558;28;20269;-31
2023/03/26 10:42:35;;;;;;;4.50;1.27;;;10.40;99.90;;;;;;5046803;28;20319;-31
2023/03/26 10:45:32;;;;;;;4.17;1.40;;;10.40;99.90;;;;;;5048801;28;20338;-31
2023/03/26 10:48:35;;;;;;;3.77;1.47;;;10.30;99.90;;;;;;5046849;28;20200;-31
2023/03/26 10:51:02;;;;;;;3.63;1.40;;;10.40;99.90;;;;;;5046427;28;20648;-31
2023/03/26 10:53:51;;;;;;;4.03;1.50;;;10.30;99.90;;;;;;5048022;28;20200;-31
2023/03/26 10:56:33;;;;;;;4.67;1.60;;;10.30;99.90;;;;;;5046021;28;20267;-34
2023/03/26 10:59:14;;;;;;;3.17;2.00;;;10.30;99.90;;;;;;5047874;28;20200;-34
2023/03/26 11:01:56;;;;;;;6.83;2.33;;;10.40;99.90;;;;;;5048074;28;20306;-34
2023/03/26 11:04:54;;;;;;;3.70;1.40;;;10.40;99.90;;;;;;5047871;28;20307;-34
2023/03/26 11:07:36;;;;;;;5.20;1.53;;;10.40;99.90;;;;;;5046305;28;20353;-34
2023/03/26 11:10:23;;;;;;;3.20;1.77;;;10.40;99.90;;;;;;5047924;28;20218;-34
2023/03/26 11:12:58;;;;;;;3.60;1.60;;;10.50;99.90;;;;;;5033101;28;20204;-34
2023/03/26 11:15:35;;;;;;;3.10;1.53;;;10.50;99.90;;;;;;5046579;28;20307;-34
2023/03/26 11:18:32;;;;;;;5.10;2.00;;;10.50;99.90;;;;;;5047853;28;20204;-34
2023/03/26 11:21:24;;;;;;;3.77;1.70;;;10.50;99.90;;;;;;5046337;28;20246;-33
2023/03/26 11:24:22;;;;;;;6.10;2.10;;;10.50;99.90;;;;;;5046529;28;20274;-31
2023/03/26 11:26:54;;;;;;;2.83;1.80;;;10.50;99.90;;;;;;5046355;28;20291;-31
2023/03/26 11:29:44;;;;;;;4.47;1.90;;;10.50;99.90;;;;;;5047668;28;20242;-31
2023/03/26 11:32:21;;;;;;;3.60;1.73;;;10.50;99.90;;;;;;5046161;28;20216;-31
2023/03/26 11:35:07;;;;;;;3.87;1.90;;;10.50;99.90;;;;;;5046145;28;20200;-30
2023/03/26 11:37:46;;;;;;;3.83;2.20;;;10.50;99.90;;;;;;5047455;28;20203;-31
2023/03/26 11:40:49;;;;;;;3.27;2.23;;;10.50;99.90;;;;;;5047506;28;20753;-30
2023/03/26 11:43:27;;;;;;;4.30;2.00;;;10.50;99.90;;;;;;5046915;28;20239;-30
2023/03/26 11:45:58;;;;;;;3.17;1.90;;;10.50;99.90;;;;;;5047204;28;20200;-31
2023/03/26 11:48:48;;;;;;;6.50;2.63;;;10.50;99.90;;;;;;5029688;28;20203;-31
2023/03/26 11:51:17;;;;;;;2.30;1.37;;;10.50;99.90;;;;;;5045634;28;20581;-31
2023/03/26 11:53:45;;;;;;;3.23;1.90;;;10.60;99.90;;;;;;5047297;28;20291;-30
2023/03/26 11:56:17;;;;;;;3.07;1.53;;;10.50;99.90;;;;;;5029310;28;20267;-31
2023/03/26 11:59:00;;;;;;;2.47;1.40;;;10.50;99.90;;;;;;5047370;28;20283;-31
2023/03/26 12:01:55;;;;;;;2.43;1.30;;;10.50;99.90;;;;;;5047082;28;20228;-31
2023/03/26 12:04:34;;;;;;;3.20;1.77;;;10.50;99.90;;;;;;5047514;28;20204;-30
2023/03/26 12:07:30;;;;;;;3.10;1.40;;;10.50;99.90;;;;;;5045663;28;20204;-31
2023/03/26 12:10:02;;;;;;;4.27;2.10;;;10.50;99.90;;;;;;5045490;28;20200;-31
2023/03/26 12:12:46;;;;;;;2.30;1.40;;;10.50;99.90;;;;;;5047032;28;20214;-30
2023/03/26 12:15:15;;;;;;;4.27;1.80;;;10.50;99.90;;;;;;5045436;28;20274;-31
2023/03/26 12:17:54;;;;;;;2.10;1.20;;;10.50;99.90;;;;;;5047224;28;20656;-31
2023/03/26 12:20:26;;;;;;;2.33;1.40;;;10.50;99.90;;;;;;5045361;28;20200;-31
2023/03/26 12:22:58;;;;;;;3.23;1.10;;;10.50;99.90;;;;;;5045637;28;20277;-31
2023/03/26 12:25:36;;;;;;;3.57;1.40;;;10.50;99.90;;;;;;5046088;28;20649;-30
2023/03/26 12:28:12;;;;;;;1.77;1.10;;;10.40;99.90;;;;;;5046252;28;20212;-30
2023/03/26 12:30:52;;;;;;;2.33;1.10;;;10.50;99.90;;;;;;5045614;28;20748;-30
2023/03/26 12:33:34;;;;;;;3.87;1.47;;;10.50;99.90;;;;;;5046528;28;20196;-30
2023/03/26 12:36:17;;;;;;;2.33;1.50;;;10.50;99.90;;;;;;5045238;28;20212;-30
2023/03/26 12:38:54;;;;;;;1.57;1.20;;;10.60;99.90;;;;;;5045104;28;20222;-30
2023/03/26 12:41:54;;;;;;;1.33;1.00;;;10.60;99.90;;;;;;5045284;28;20307;-31
2023/03/26 12:44:48;;;;;;;4.43;1.17;;;10.60;99.90;;;;;;5046234;28;20207;-30
2023/03/26 12:47:32;;;;;;;1.47;1.03;;;10.60;99.90;;;;;;5046129;28;20199;-30
2023/03/26 12:50:29;;;;;;;2.37;1.00;;;10.60;99.90;;;;;;5044897;28;20202;-30
2023/03/26 12:53:25;;;;;;;2.33;1.10;;;10.60;99.90;;;;;;5046169;28;20291;-30
2023/03/26 12:56:00;;;;;;;2.97;1.00;;;10.70;99.90;;;;;;5046016;28;20699;-31
2023/03/26 12:59:01;;;;;;;2.23;1.30;;;10.60;99.90;;;;;;5045933;28;20207;-31
2023/03/26 13:01:52;;;;;;;2.63;1.30;;;10.60;99.90;;;;;;5044889;28;20218;-30
2023/03/26 13:05:22;;;;;;;1.57;1.20;;;10.60;99.90;;;;;;5046048;28;20866;-31
2023/03/26 13:08:17;;;;;;;2.23;1.20;;;10.70;99.90;;;;;;5026438;28;20226;-31
2023/03/26 13:10:52;;;;;;;2.40;1.20;;;10.70;99.90;;;;;;5043087;28;20279;-31
2023/03/26 13:13:46;;;;;;;1.87;1.17;;;10.70;99.90;;;;;;5039174;28;20640;-31
2023/03/26 13:16:32;;;;;;;2.87;1.23;;;10.80;99.90;;;;;;5044573;28;20192;-31
2023/03/26 13:19:13;;;;;;;2.17;1.00;;;10.80;99.90;;;;;;5046580;28;20200;-30
2023/03/26 13:21:55;;;;;;;2.07;1.30;;;10.80;99.90;;;;;;5045888;28;20239;-30
2023/03/26 13:24:49;;;;;;;1.23;0.90;;;10.80;99.90;;;;;;5046155;28;20589;-30
2023/03/26 13:27:27;;;;;;;1.80;1.10;;;10.70;99.90;;;;;;5045246;28;20204;-30
2023/03/26 13:30:26;;;;;;;2.20;0.90;;;10.80;99.90;;;;;;5045783;28;20300;-30
2023/03/26 13:33:38;;;;;;;2.23;1.10;;;10.90;99.90;;;;;;5045837;28;20211;-30
2023/03/26 13:36:17;;;;;;;2.83;1.10;;;10.90;99.90;;;;;;5048225;28;20675;-30
2023/03/26 13:39:16;;;;;;;1.67;1.00;;;10.90;99.90;;;;;;5049939;28;20313;-31